Nearby METAR Reports

 

KSEE - San Diego/Santee, California, USA
Distance from station: E 4mi, 6km
Updated: 12/17/2018 7:15am
Overcast
Overcast
 Wind from SSE
Wind: SSE 7 mph , 11 km/h
Temperature: 52°F , 11°C
Dew Point: 46°F , 8°C
Humidity: 82%
Barometer: 30.18 inHg , 1022 hPa
Clouds: Overcast
Visibility: 10 miles , 16 km
Cloud details: Overcast 800 ft
2018/12/17 15:15 KSEE 171515Z AUTO 16006KT 10SM OVC008 11/08 A3018 RMK AO2
KMYF - San Diego/Mntgmy, California, USA
Distance from station: W 6mi, 10km
Updated: 12/17/2018 6:53am
Mist, Clear
Mist, Clear
 Wind from ESE
Wind: ESE 8 mph , 13 km/h
Temperature: 54°F , 12°C
Dew Point: 52°F , 11°C
Humidity: 94%
Barometer: 30.18 inHg , 1022 hPa
Summary: Mist
Clouds: Clear
Visibility: 3 miles , 5 km
2018/12/17 14:53 KMYF 171453Z 11007KT 3SM BR CLR 12/11 A3018 RMK AO2 RAB15E25 SLP217 P0000 60000 T01220111 50009
 
KNKX - Miramar Nas/San, California, USA
Distance from station: WNW 7mi, 11km
Updated: 12/17/2018 6:55am
Mist, Mostly cloudy
Mist, Mostly cloudy
 Wind from E
Wind: E 9 mph , 15 km/h
Temperature: 55°F , 13°C
Dew Point: 52°F , 11°C
Humidity: 88%
Barometer: 30.17 inHg , 1021.7 hPa
Summary: Mist
Clouds: Mostly cloudy
Visibility: 5 miles , 8 km
Cloud details: Few Clouds 2000 ft
Few Clouds 11000 ft
Mostly cloudy 15000 ft
2018/12/17 14:55 KNKX 171455Z 09008KT 5SM BR FEW020 FEW110 BKN150 13/11 A3017 RMK AO2 SLP213 T01330106 50007
KSAN - San Diego, California, USA
Distance from station: WSW 11mi, 17km
Updated: 12/17/2018 6:58am
Overcast
Overcast
 Wind from E
Wind: E 8 mph , 13 km/h
Temperature: 50°F , 10°C
Wind Chill: 47°F , 8°C
Dew Point: 50°F , 10°C
Humidity: 100%
Barometer: 30.19 inHg , 1022.4 hPa
Clouds: Overcast
Visibility: 10 miles , 16 km
Cloud details: Partly cloudy 2800 ft
Mostly cloudy 20000 ft
Overcast 25000 ft
2018/12/17 14:58 KSAN 171458Z 10007KT 10SM SCT028 BKN200 OVC250 10/10 A3019 RMK AO2 T01000100
 
KNZY - North Island Nas, California, USA
Distance from station: SW 13mi, 22km
Updated: 12/17/2018 6:52am
Mostly cloudy
Mostly cloudy
 Wind from ESE
Wind: ESE 6 mph , 9 km/h
Temperature: 57°F , 14°C
Dew Point: 52°F , 11°C
Humidity: 82%
Barometer: 30.17 inHg , 1021.7 hPa
Clouds: Mostly cloudy
Visibility: 8 miles , 13 km
Cloud details: Few Clouds 2500 ft
Partly cloudy 3500 ft
Mostly cloudy 15000 ft
2018/12/17 14:52 KNZY 171452Z 11005KT 8SM FEW025 SCT035 BKN150 14/11 A3017 RMK AO2 SLP217 T01440111 50009 PNO $
KRNM - Ramona, California, USA
Distance from station: NNE 16mi, 26km
Updated: 12/17/2018 7:10am
Overcast
Overcast
 Wind from E
Wind: E 6 mph , 9 km/h
Temperature: 45°F , 7°C
Wind Chill: 42°F , 6°C
Dew Point: 41°F , 5°C
Humidity: 87%
Barometer: 30.17 inHg , 1021.7 hPa
Clouds: Overcast
Visibility: 10 miles , 16 km
Cloud details: Partly cloudy 500 ft
Mostly cloudy 8000 ft
Overcast 11000 ft
2018/12/17 15:10 KRNM 171510Z AUTO 09005KT 10SM SCT005 BKN080 OVC110 07/05 A3017 RMK AO2 T00720050
 
KSDM - San Diego/Brown, California, USA
Distance from station: S 16mi, 26km
Updated: 12/17/2018 6:53am
Mist, Few clouds
Mist, Few clouds
 Wind from ENE
Wind: ENE 6 mph , 9 km/h
Temperature: 52°F , 11°C
Dew Point: 50°F , 10°C
Humidity: 94%
Barometer: 30.19 inHg , 1022.4 hPa
Summary: Mist
Clouds: Few Clouds
Visibility: 4 miles , 6 km
Cloud details: Few Clouds 2200 ft
2018/12/17 14:53 KSDM 171453Z AUTO 07005KT 4SM BR FEW022 11/10 A3019 RMK AO2 SLP221 T01060100 51015
KNRS - Imperial Beach, California, USA
Distance from station: SSW 18mi, 29km
Updated: 12/17/2018 6:56am
Mostly cloudy
Mostly cloudy
 Wind from ESE
Wind: ESE 7 mph , 11 km/h
Temperature: 54°F , 12°C
Dew Point: 52°F , 11°C
Humidity: 94%
Barometer: 30.19 inHg , 1022.4 hPa
Clouds: Mostly cloudy
Visibility: 7 miles , 11 km
Cloud details: Mostly cloudy 3600 ft
Mostly cloudy 20000 ft
2018/12/17 14:56 KNRS 171456Z 11006KT 7SM BKN036 BKN200 12/11 A3019 RMK AO2 SLP223 T01220106 51012 $
 
MMTJ - Tijuana Intl Arp, Mexico
Distance from station: S 20mi, 32km
Updated: 12/17/2018 6:48am
Mostly cloudy
Mostly cloudy
 Wind from calm
Wind: Calm
Temperature: 52°F , 11°C
Dew Point: 50°F , 10°C
Humidity: 94%
Barometer: 30.21 inHg , 1023 hPa
Clouds: Mostly cloudy
Visibility: 6 miles , 10 km
Cloud details: Few Clouds 1200 ft
Partly cloudy 6000 ft
Mostly cloudy 20000 ft
2018/12/17 14:48 MMTJ 171448Z 00000KT 6SM FEW012 SCT060 BKN200 11/10 A3021 RMK SLP237 52014 929 8/658 HZY VISI E 3MI
KCRQ - Carlsbad, California, USA
Distance from station: NW 26mi, 43km
Updated: 12/17/2018 6:53am
Mist, Mostly cloudy
Mist, Mostly cloudy
 Wind from E
Wind: E 5 mph , 7 km/h
Temperature: 55°F , 13°C
Dew Point: 54°F , 12°C
Humidity: 94%
Barometer: 30.15 inHg , 1021 hPa
Summary: Mist
Clouds: Mostly cloudy
Visibility: 6 miles , 10 km
Cloud details: Mostly cloudy 11000 ft
2018/12/17 14:53 KCRQ 171453Z 08004KT 6SM BR BKN110 13/12 A3015 RMK AO2 SLP209 T01280117 50002
 
KOKB - Oceanside, California, USA
Distance from station: NW 33mi, 54km
Updated: 12/17/2018 6:52am
Mist, Few clouds
Mist, Few clouds
 Wind from NE
Wind: NE 9 mph , 15 km/h
Temperature: 48°F , 9°C
Wind Chill: 44°F , 7°C
Dew Point: 48°F , 9°C
Humidity: 100%
Barometer: 30.15 inHg , 1021 hPa
Summary: Mist
Clouds: Few Clouds
Visibility: 6 miles , 10 km
Cloud details: Few Clouds 11000 ft
2018/12/17 14:52 KOKB 171452Z AUTO 05008KT 6SM BR FEW110 09/09 A3015 RMK AO2 SLP207 T00940094 58002
KCZZ - Campo, California, USA
Distance from station: ESE 35mi, 56km
Updated: 12/17/2018 6:52am

 Wind from E
Wind: E 3 mph , 6 km/h
Temperature: 36°F , 2°C
Dew Point: 25°F , -4°C
Humidity: 65%
Barometer: 30.15 inHg , 1021 hPa
2018/12/17 14:52 KCZZ 171452Z AUTO 08003KT 02/M04 A3015 RMK AO1 SLP205 T00221044 53007
 
KNFG - Camp Pendleton, California, USA
Distance from station: NNW 37mi, 59km
Updated: 12/17/2018 6:55am
Mostly cloudy
Mostly cloudy
 Wind from NW
Wind: NW 3 mph , 6 km/h
Temperature: 46°F , 8°C
Dew Point: 46°F , 8°C
Humidity: 100%
Barometer: 30.16 inHg , 1021.3 hPa
Clouds: Mostly cloudy
Visibility: 7 miles , 11 km
Cloud details: Partly cloudy 1000 ft
Mostly cloudy 12000 ft
2018/12/17 14:55 KNFG 171455Z 31003KT 7SM SCT010 BKN120 08/08 A3016 RMK AO2 SLP213 T00830083 50002 $
KRIV - Riverside/March, California, USA
Distance from station: N 74mi, 119km
Updated: 12/17/2018 6:58am
Mist, Overcast
Mist, Overcast
 Wind from calm
Wind: Calm
Temperature: 50°F , 10°C
Dew Point: 50°F , 10°C
Humidity: 100%
Barometer: 30.16 inHg , 1021.3 hPa
Summary: Mist
Clouds: Overcast
Visibility: 1 1/2 miles , 2 km
Cloud details: Few Clouds 200 ft
Mostly cloudy 11000 ft
Overcast 13000 ft
2018/12/17 14:58 KRIV 171458Z 00000KT 1 1/2SM BR FEW002 BKN110 OVC130 10/10 A3016 RMK AO2A SLP213 T00970097 5//// $
 
KTRM - Thermal/Palm Spg, California, USA
Distance from station: NE 75mi, 121km
Updated: 12/17/2018 6:52am
Clear
Clear
 Wind from calm
Wind: Calm
Temperature: 45°F , 7°C
Dew Point: 36°F , 2°C
Humidity: 71%
Barometer: 30.13 inHg , 1020.3 hPa
Clouds: Clear
Visibility: 10 miles , 16 km
2018/12/17 14:52 KTRM 171452Z AUTO 00000KT 10SM CLR 07/02 A3013 RMK AO2 SLP201 T00720017 53013
KPSP - Palm Springs, California, USA
Distance from station: NNE 76mi, 122km
Updated: 12/17/2018 6:53am
Clear
Clear
 Wind from calm
Wind: Calm
Temperature: 59°F , 15°C
Dew Point: 34°F , 1°C
Humidity: 39%
Barometer: 30.15 inHg , 1021 hPa
Clouds: Clear
Visibility: 10 miles , 16 km
2018/12/17 14:53 KPSP 171453Z 00000KT 10SM CLR 15/01 A3015 RMK AO2 SLP209 T01500011 53011
 
KSNA - Costa Mesa, California, USA
Distance from station: NW 76mi, 123km
Updated: 12/17/2018 7:08am
Mostly cloudy
Mostly cloudy
 Wind from calm
Wind: Calm
Temperature: 57°F , 14°C
Dew Point: 54°F , 12°C
Humidity: 88%
Barometer: 30.18 inHg , 1022 hPa
Clouds: Mostly cloudy
Visibility: 8 miles , 13 km
Cloud details: Mostly cloudy 2300 ft
Mostly cloudy 10000 ft
2018/12/17 15:08 KSNA 171508Z 00000KT 8SM BKN023 BKN100 14/12 A3018 RMK AO2 T01440117
KNJK - El Centro Naf, California, USA
Distance from station: E 79mi, 127km
Updated: 12/17/2018 6:56am
Mostly cloudy
Mostly cloudy
 Wind from SSW
Wind: SSW 3 mph , 6 km/h
Temperature: 45°F , 7°C
Dew Point: 36°F , 2°C
Humidity: 71%
Barometer: 30.14 inHg , 1020.7 hPa
Clouds: Mostly cloudy
Visibility: 10 miles , 16 km
Cloud details: Few Clouds 15000 ft
Mostly cloudy 25000 ft
2018/12/17 14:56 KNJK 171456Z 21003KT 10SM FEW150 BKN250 07/02 A3014 RMK AO2 SLP221 T00670017 52006 $
 
KAJO - Corona Muni, California, USA
Distance from station: NNW 82mi, 132km
Updated: 12/17/2018 6:23am
Haze, Overcast
Haze, Overcast
 Wind from ESE
Wind: ESE 5 mph , 7 km/h
Barometer: 30.17 inHg , 1021.7 hPa
Summary: Haze
Clouds: Overcast
Visibility: 5 miles , 8 km
Cloud details: Mostly cloudy 1000 ft
Overcast 1300 ft
2018/12/17 14:23 KAJO 171423Z AUTO 12004KT 5SM HZ BKN010 OVC013 A3017 RMK AO2 CIG 007V010 FZRANO $